Time,TemperatureF,DewpointF,PressureIn,WindDirection,WindDirectionDegrees,WindSpeedMPH,WindSpeedGustMPH,Humidity,HourlyPrecipIn,Conditions,Clouds,dailyrainin,SoftwareType,DateUTC
2013-04-16 00:00:00,73.5,68.4,29.98,East,80,0.0,0.0,84,0.00,,,0.00,Wunderground v.1.15,2013-04-16 04:00:00,
2013-04-16 00:10:00,73.2,68.1,29.98,East,79,0.0,0.0,84,0.00,,,0.00,Wunderground v.1.15,2013-04-16 04:10:00,
2013-04-16 00:15:00,73.2,68.1,29.98,East,79,0.0,0.0,84,0.00,,,0.00,Wunderground v.1.15,2013-04-16 04:15:00,
2013-04-16 00:20:00,73.2,68.1,29.98,East,80,0.0,0.0,84,0.00,,,0.00,Wunderground v.1.15,2013-04-16 04:20:00,
2013-04-16 00:30:00,73.0,68.2,29.98,East,79,0.0,0.0,85,0.00,,,0.00,Wunderground v.1.15,2013-04-16 04:30:00,
2013-04-16 00:40:00,73.2,68.4,29.98,East,80,0.0,0.0,85,0.00,,,0.00,Wunderground v.1.15,2013-04-16 04:40:00,
2013-04-16 00:45:00,73.2,68.4,29.97,East,80,0.0,0.0,85,0.00,,,0.00,Wunderground v.1.15,2013-04-16 04:45:00,
2013-04-16 00:55:00,73.0,68.2,29.97,East,79,0.0,0.0,85,0.00,,,0.00,Wunderground v.1.15,2013-04-16 04:55:00,
2013-04-16 01:05:00,73.0,68.6,29.97,East,79,0.0,0.0,86,0.00,,,0.00,Wunderground v.1.15,2013-04-16 05:05:00,
2013-04-16 01:15:00,73.0,68.6,29.97,East,80,0.0,0.0,86,0.00,,,0.00,Wunderground v.1.15,2013-04-16 05:15:00,
2013-04-16 01:25:00,72.7,68.6,29.97,East,79,0.0,0.0,87,0.00,,,0.00,Wunderground v.1.15,2013-04-16 05:25:00,
2013-04-16 01:30:00,72.5,68.4,29.97,East,80,0.0,0.0,87,0.00,,,0.00,Wunderground v.1.15,2013-04-16 05:30:00,
2013-04-16 01:40:00,72.5,68.7,29.97,East,79,0.0,0.0,88,0.00,,,0.00,Wunderground v.1.15,2013-04-16 05:40:00,
2013-04-16 01:50:00,72.3,68.5,29.97,East,79,0.0,0.0,88,0.00,,,0.00,Wunderground v.1.15,2013-04-16 05:50:00,
2013-04-16 01:55:00,72.3,68.5,29.97,East,79,0.0,0.0,88,0.00,,,0.00,Wunderground v.1.15,2013-04-16 05:55:00,
2013-04-16 02:05:00,72.0,68.2,29.96,East,79,0.0,0.0,88,0.00,,,0.00,Wunderground v.1.15,2013-04-16 06:05:00,
2013-04-16 02:15:00,72.0,68.2,29.95,East,80,0.0,0.0,88,0.00,,,0.00,Wunderground v.1.15,2013-04-16 06:15:00,
2013-04-16 02:20:00,71.8,68.4,29.95,East,79,0.0,0.0,89,0.00,,,0.00,Wunderground v.1.15,2013-04-16 06:20:00,
2013-04-16 02:30:00,71.5,68.1,29.95,East,79,0.0,0.0,89,0.00,,,0.00,Wunderground v.1.15,2013-04-16 06:30:00,
2013-04-16 02:40:00,71.5,68.1,29.95,East,79,0.0,0.0,89,0.00,,,0.00,Wunderground v.1.15,2013-04-16 06:40:00,
2013-04-16 02:50:00,71.3,68.2,29.95,East,80,0.0,0.0,90,0.00,,,0.00,Wunderground v.1.15,2013-04-16 06:50:00,
2013-04-16 02:55:00,71.3,68.2,29.95,East,79,0.0,0.0,90,0.00,,,0.00,Wunderground v.1.15,2013-04-16 06:55:00,
2013-04-16 03:05:00,71.1,68.0,29.95,East,80,0.0,0.0,90,0.00,,,0.00,Wunderground v.1.15,2013-04-16 07:05:00,
2013-04-16 03:15:00,71.1,68.3,29.94,East,79,0.0,0.0,91,0.00,,,0.00,Wunderground v.1.15,2013-04-16 07:15:00,
2013-04-16 03:25:00,70.9,68.1,29.94,East,79,0.0,0.0,91,0.00,,,0.00,Wunderground v.1.15,2013-04-16 07:25:00,
2013-04-16 03:30:00,70.9,68.5,29.94,East,79,0.0,0.0,92,0.00,,,0.00,Wunderground v.1.15,2013-04-16 07:30:00,
2013-04-16 03:40:00,70.6,68.2,29.94,East,79,0.0,0.0,92,0.00,,,0.00,Wunderground v.1.15,2013-04-16 07:40:00,
2013-04-16 03:50:00,70.8,68.4,29.94,East,80,0.0,0.0,92,0.00,,,0.00,Wunderground v.1.15,2013-04-16 07:50:00,
2013-04-16 04:00:00,70.8,68.4,29.94,East,79,0.0,0.0,92,0.00,,,0.00,Wunderground v.1.15,2013-04-16 08:00:00,
2013-04-16 04:10:00,70.6,68.5,29.94,East,80,0.0,4.0,93,0.00,,,0.00,Wunderground v.1.15,2013-04-16 08:10:00,
2013-04-16 04:15:00,70.6,68.5,29.94,East,80,0.0,4.0,93,0.00,,,0.00,Wunderground v.1.15,2013-04-16 08:15:00,
2013-04-16 04:25:00,70.6,68.5,29.94,East,79,0.0,4.0,93,0.00,,,0.00,Wunderground v.1.15,2013-04-16 08:25:00,
2013-04-16 04:35:00,70.6,68.5,29.94,East,79,0.0,4.0,93,0.00,,,0.00,Wunderground v.1.15,2013-04-16 08:35:00,
2013-04-16 04:45:00,70.4,68.3,29.94,East,79,0.0,4.0,93,0.00,,,0.00,Wunderground v.1.15,2013-04-16 08:45:00,
2013-04-16 04:50:00,70.3,68.2,29.94,East,79,0.0,4.0,93,0.00,,,0.00,Wunderground v.1.15,2013-04-16 08:50:00,
2013-04-16 05:00:00,70.1,68.0,29.94,East,79,0.0,4.0,93,0.00,,,0.00,Wunderground v.1.15,2013-04-16 09:00:00,
2013-04-16 05:10:00,70.1,68.3,29.94,East,79,0.0,4.0,94,0.00,,,0.00,Wunderground v.1.15,2013-04-16 09:10:00,
2013-04-16 05:15:00,69.9,68.1,29.94,East,79,0.0,4.0,94,0.00,,,0.00,Wunderground v.1.15,2013-04-16 09:15:00,
2013-04-16 05:25:00,69.9,68.1,29.94,East,79,0.0,4.0,94,0.00,,,0.00,Wunderground v.1.15,2013-04-16 09:25:00,
2013-04-16 05:35:00,69.6,67.8,29.95,East,79,0.0,4.0,94,0.00,,,0.00,Wunderground v.1.15,2013-04-16 09:35:00,
2013-04-16 05:45:00,69.4,67.6,29.95,East,79,0.0,4.0,94,0.00,,,0.00,Wunderground v.1.15,2013-04-16 09:45:00,
2013-04-16 05:50:00,69.4,67.6,29.95,East,82,0.0,4.0,94,0.00,,,0.00,Wunderground v.1.15,2013-04-16 09:50:00,
2013-04-16 06:00:00,69.3,67.8,29.97,East,93,0.0,4.0,95,0.00,,,0.00,Wunderground v.1.15,2013-04-16 10:00:00,
2013-04-16 06:10:00,69.3,67.8,29.97,East,90,0.0,0.0,95,0.00,,,0.00,Wunderground v.1.15,2013-04-16 10:10:00,
2013-04-16 06:20:00,69.3,67.8,29.97,East,90,0.0,0.0,95,0.00,,,0.00,Wunderground v.1.15,2013-04-16 10:20:00,
2013-04-16 06:30:00,69.1,67.6,29.97,East,90,0.0,0.0,95,0.00,,,0.00,Wunderground v.1.15,2013-04-16 10:30:00,
2013-04-16 06:35:00,69.3,67.8,29.97,East,90,0.0,0.0,95,0.00,,,0.00,Wunderground v.1.15,2013-04-16 10:35:00,
2013-04-16 06:45:00,69.3,68.1,29.98,East,90,0.0,0.0,96,0.00,,,0.00,Wunderground v.1.15,2013-04-16 10:45:00,
2013-04-16 06:55:00,69.3,68.1,29.98,East,90,0.0,0.0,96,0.00,,,0.00,Wunderground v.1.15,2013-04-16 10:55:00,
2013-04-16 07:00:00,69.1,67.9,29.99,East,90,0.0,0.0,96,0.00,,,0.00,Wunderground v.1.15,2013-04-16 11:00:00,
2013-04-16 07:10:00,69.3,68.1,29.99,East,90,0.0,5.0,96,0.00,,,0.00,Wunderground v.1.15,2013-04-16 11:10:00,
2013-04-16 07:20:00,69.3,68.1,29.99,East,89,0.0,5.0,96,0.00,,,0.00,Wunderground v.1.15,2013-04-16 11:20:00,
2013-04-16 07:30:00,69.3,68.1,30.00,East,90,0.0,5.0,96,0.00,,,0.00,Wunderground v.1.15,2013-04-16 11:30:00,
2013-04-16 07:35:00,69.3,68.1,30.00,East,89,0.0,5.0,96,0.00,,,0.00,Wunderground v.1.15,2013-04-16 11:35:00,
2013-04-16 07:45:00,69.8,68.6,30.00,East,90,0.0,5.0,96,0.00,,,0.00,Wunderground v.1.15,2013-04-16 11:45:00,
2013-04-16 07:55:00,70.1,68.9,30.00,East,90,0.0,5.0,96,0.00,,,0.00,Wunderground v.1.15,2013-04-16 11:55:00,
2013-04-16 08:05:00,70.6,69.4,30.01,East,91,1.0,5.0,96,0.00,,,0.00,Wunderground v.1.15,2013-04-16 12:05:00,
2013-04-16 08:15:00,71.5,70.0,30.01,East,79,1.0,5.0,95,0.00,,,0.00,Wunderground v.1.15,2013-04-16 12:15:00,
2013-04-16 08:20:00,72.0,70.5,30.01,ESE,114,0.0,5.0,95,0.00,,,0.00,Wunderground v.1.15,2013-04-16 12:20:00,
2013-04-16 08:30:00,72.8,70.7,30.02,East,89,2.0,2.0,93,0.00,,,0.00,Wunderground v.1.15,2013-04-16 12:30:00,
2013-04-16 08:40:00,73.5,71.0,30.02,ESE,112,4.0,14.0,92,0.00,,,0.00,Wunderground v.1.15,2013-04-16 12:40:00,
2013-04-16 08:50:00,74.2,70.7,30.02,East,79,7.0,13.0,89,0.00,,,0.00,Wunderground v.1.15,2013-04-16 12:50:00,
2013-04-16 09:00:00,74.9,70.8,30.02,ESE,109,5.0,5.0,87,0.00,,,0.00,Wunderground v.1.15,2013-04-16 13:00:00,
2013-04-16 09:05:00,75.4,70.9,30.02,East,97,4.0,5.0,86,0.00,,,0.00,Wunderground v.1.15,2013-04-16 13:05:00,
2013-04-16 09:15:00,75.8,70.6,30.02,ESE,103,6.0,12.0,84,0.00,,,0.00,Wunderground v.1.15,2013-04-16 13:15:00,
2013-04-16 09:25:00,76.1,70.6,30.02,ESE,119,9.0,14.0,83,0.00,,,0.00,Wunderground v.1.15,2013-04-16 13:25:00,
2013-04-16 09:35:00,76.5,70.6,30.02,ESE,121,10.0,15.0,82,0.00,,,0.00,Wunderground v.1.15,2013-04-16 13:35:00,
2013-04-16 09:40:00,77.2,70.9,30.02,East,97,9.0,9.0,81,0.00,,,0.00,Wunderground v.1.15,2013-04-16 13:40:00,
2013-04-16 09:50:00,77.7,70.7,30.02,ESE,107,8.0,18.0,79,0.00,,,0.00,Wunderground v.1.15,2013-04-16 13:50:00,
2013-04-16 10:00:00,78.8,71.0,30.02,East,100,7.0,10.0,77,0.00,,,0.00,Wunderground v.1.15,2013-04-16 14:00:00,
2013-04-16 10:10:00,79.6,71.4,30.02,ESE,102,6.0,19.0,76,0.00,,,0.00,Wunderground v.1.15,2013-04-16 14:10:00,
2013-04-16 10:20:00,79.9,70.9,30.02,ENE,71,7.0,7.0,74,0.00,,,0.00,Wunderground v.1.15,2013-04-16 14:20:00,
2013-04-16 10:25:00,80.1,71.1,30.02,East,87,8.0,14.0,74,0.00,,,0.00,Wunderground v.1.15,2013-04-16 14:25:00,
2013-04-16 10:35:00,80.7,71.2,30.02,ENE,67,8.0,19.0,73,0.00,,,0.00,Wunderground v.1.15,2013-04-16 14:35:00,
2013-04-16 10:45:00,81.2,71.7,30.02,ENE,61,7.0,19.0,73,0.00,,,0.00,Wunderground v.1.15,2013-04-16 14:45:00,
2013-04-16 10:55:00,81.4,71.1,30.02,NE,46,9.0,9.0,71,0.00,,,0.00,Wunderground v.1.15,2013-04-16 14:55:00,
2013-04-16 11:00:00,81.4,71.1,30.02,SE,124,11.0,19.0,71,0.00,,,0.00,Wunderground v.1.15,2013-04-16 15:00:00,
2013-04-16 11:10:00,82.0,71.7,30.02,East,88,10.0,19.0,71,0.00,,,0.00,Wunderground v.1.15,2013-04-16 15:10:00,
2013-04-16 11:20:00,82.8,72.0,30.02,ESE,110,8.0,8.0,70,0.00,,,0.00,Wunderground v.1.15,2013-04-16 15:20:00,
2013-04-16 11:30:00,83.4,72.2,30.02,ESE,104,5.0,19.0,69,0.00,,,0.00,Wunderground v.1.15,2013-04-16 15:30:00,
2013-04-16 11:35:00,83.4,71.7,30.02,East,86,8.0,19.0,68,0.00,,,0.00,Wunderground v.1.15,2013-04-16 15:35:00,
2013-04-16 11:45:00,83.4,72.2,30.03,ESE,122,6.0,11.0,69,0.00,,,0.00,Wunderground v.1.15,2013-04-16 15:45:00,
2013-04-16 11:55:00,83.8,71.7,30.03,ESE,109,9.0,19.0,67,0.00,,,0.00,Wunderground v.1.15,2013-04-16 15:55:00,
2013-04-16 12:00:00,83.8,71.7,30.03,ESE,107,8.0,19.0,67,0.00,,,0.00,Wunderground v.1.15,2013-04-16 16:00:00,
2013-04-16 12:10:00,84.3,71.2,30.03,ESE,113,8.0,8.0,65,0.00,,,0.00,Wunderground v.1.15,2013-04-16 16:10:00,
2013-04-16 12:15:00,84.0,71.4,30.02,East,100,8.0,8.0,66,0.00,,,0.00,Wunderground v.1.15,2013-04-16 16:15:00,
2013-04-16 12:20:00,84.0,71.0,30.02,ESE,110,8.0,8.0,65,0.00,,,0.00,Wunderground v.1.15,2013-04-16 16:20:00,
2013-04-16 12:30:00,84.3,70.3,30.02,SE,143,7.0,10.0,63,0.00,,,0.00,Wunderground v.1.15,2013-04-16 16:30:00,
2013-04-16 12:40:00,85.3,70.8,30.02,East,94,6.0,6.0,62,0.00,,,0.00,Wunderground v.1.15,2013-04-16 16:40:00,
2013-04-16 12:45:00,85.3,70.8,30.02,ESE,122,6.0,6.0,62,0.00,,,0.00,Wunderground v.1.15,2013-04-16 16:45:00,
2013-04-16 12:55:00,84.7,70.2,30.02,ESE,118,5.0,7.0,62,0.00,,,0.00,Wunderground v.1.15,2013-04-16 16:55:00,
2013-04-16 13:05:00,84.9,70.4,30.01,ESE,102,6.0,23.0,62,0.00,,,0.00,Wunderground v.1.15,2013-04-16 17:05:00,
2013-04-16 13:15:00,85.7,70.2,30.00,NE,48,4.0,23.0,60,0.00,,,0.00,Wunderground v.1.15,2013-04-16 17:15:00,
2013-04-16 13:20:00,85.9,70.4,30.00,ESE,114,5.0,23.0,60,0.00,,,0.00,Wunderground v.1.15,2013-04-16 17:20:00,
2013-04-16 13:30:00,86.3,70.3,30.00,ESE,109,6.0,23.0,59,0.00,,,0.00,Wunderground v.1.15,2013-04-16 17:30:00,
2013-04-16 13:40:00,86.7,69.6,30.00,East,89,9.0,9.0,57,0.00,,,0.00,Wunderground v.1.15,2013-04-16 17:40:00,
2013-04-16 13:50:00,86.7,69.1,30.00,ESE,109,7.0,23.0,56,0.00,,,0.00,Wunderground v.1.15,2013-04-16 17:50:00,
2013-04-16 13:55:00,87.8,69.1,30.00,East,100,6.0,23.0,54,0.00,,,0.00,Wunderground v.1.15,2013-04-16 17:55:00,
2013-04-16 14:05:00,88.0,68.7,30.00,East,86,5.0,23.0,53,0.00,,,0.00,Wunderground v.1.15,2013-04-16 18:05:00,
2013-04-16 14:15:00,87.8,68.5,29.99,ENE,72,7.0,23.0,53,0.00,,,0.00,Wunderground v.1.15,2013-04-16 18:15:00,
2013-04-16 14:25:00,88.0,68.7,29.99,SE,131,8.0,23.0,53,0.00,,,0.00,Wunderground v.1.15,2013-04-16 18:25:00,
2013-04-16 14:35:00,88.0,67.6,29.98,NW,314,8.0,23.0,51,0.00,,,0.00,Wunderground v.1.15,2013-04-16 18:35:00,
2013-04-16 14:40:00,88.8,67.8,29.98,East,89,6.0,6.0,50,0.00,,,0.00,Wunderground v.1.15,2013-04-16 18:40:00,
2013-04-16 14:50:00,88.6,67.0,29.97,ESE,105,7.0,23.0,49,0.00,,,0.00,Wunderground v.1.15,2013-04-16 18:50:00,
2013-04-16 15:00:00,88.4,67.4,29.97,East,92,4.0,4.0,50,0.00,,,0.00,Wunderground v.1.15,2013-04-16 19:00:00,
2013-04-16 15:10:00,89.0,67.9,29.97,ESE,121,5.0,5.0,50,0.00,,,0.00,Wunderground v.1.15,2013-04-16 19:10:00,
2013-04-16 15:20:00,89.7,67.4,29.97,North,6,4.0,4.0,48,0.00,,,0.00,Wunderground v.1.15,2013-04-16 19:20:00,
2013-04-16 15:30:00,88.8,67.8,29.97,NE,51,3.0,3.0,50,0.00,,,0.00,Wunderground v.1.15,2013-04-16 19:30:00,
2013-04-16 15:40:00,88.4,67.4,29.97,East,92,4.0,4.0,50,0.00,,,0.00,Wunderground v.1.15,2013-04-16 19:40:00,
2013-04-16 15:50:00,88.6,66.4,29.96,North,6,3.0,3.0,48,0.00,,,0.00,Wunderground v.1.15,2013-04-16 19:50:00,
2013-04-16 15:55:00,89.3,66.4,29.96,East,100,3.0,11.0,47,0.00,,,0.00,Wunderground v.1.15,2013-04-16 19:55:00,
2013-04-16 16:05:00,89.5,66.6,29.95,ENE,71,6.0,19.0,47,0.00,,,0.00,Wunderground v.1.15,2013-04-16 20:05:00,
2013-04-16 16:15:00,89.3,65.2,29.95,East,101,7.0,19.0,45,0.00,,,0.00,Wunderground v.1.15,2013-04-16 20:15:00,
2013-04-16 16:25:00,90.3,66.7,29.95,North,0,3.0,19.0,46,0.00,,,0.00,Wunderground v.1.15,2013-04-16 20:25:00,
2013-04-16 16:35:00,90.1,65.9,29.95,NW,319,2.0,2.0,45,0.00,,,0.00,Wunderground v.1.15,2013-04-16 20:35:00,
2013-04-16 16:45:00,89.3,65.8,29.95,ENE,63,5.0,19.0,46,0.00,,,0.00,Wunderground v.1.15,2013-04-16 20:45:00,
2013-04-16 16:55:00,89.3,65.8,29.95,ENE,61,1.0,19.0,46,0.00,,,0.00,Wunderground v.1.15,2013-04-16 20:55:00,
2013-04-16 17:05:00,89.9,66.3,29.95,ENE,65,6.0,19.0,46,0.00,,,0.00,Wunderground v.1.15,2013-04-16 21:05:00,
2013-04-16 17:15:00,88.8,66.0,29.95,NE,53,6.0,19.0,47,0.00,,,0.00,Wunderground v.1.15,2013-04-16 21:15:00,
2013-04-16 17:20:00,88.6,65.8,29.95,East,91,5.0,5.0,47,0.00,,,0.00,Wunderground v.1.15,2013-04-16 21:20:00,
2013-04-16 17:30:00,88.6,65.8,29.95,NNE,27,3.0,19.0,47,0.00,,,0.00,Wunderground v.1.15,2013-04-16 21:30:00,
2013-04-16 17:40:00,89.5,66.0,29.95,NE,49,5.0,5.0,46,0.00,,,0.00,Wunderground v.1.15,2013-04-16 21:40:00,
2013-04-16 17:50:00,89.3,66.4,29.95,North,3,6.0,19.0,47,0.00,,,0.00,Wunderground v.1.15,2013-04-16 21:50:00,
2013-04-16 18:00:00,89.5,66.0,29.95,ENE,58,8.0,8.0,46,0.00,,,0.00,Wunderground v.1.15,2013-04-16 22:00:00,
2013-04-16 18:10:00,89.3,65.8,29.95,ENE,74,8.0,9.0,46,0.00,,,0.00,Wunderground v.1.15,2013-04-16 22:10:00,
2013-04-16 18:20:00,88.8,65.4,29.95,ENE,60,6.0,6.0,46,0.00,,,0.00,Wunderground v.1.15,2013-04-16 22:20:00,
2013-04-16 18:30:00,89.0,66.2,29.95,NE,51,3.0,3.0,47,0.00,,,0.00,Wunderground v.1.15,2013-04-16 22:30:00,
2013-04-16 18:40:00,89.0,66.2,29.95,East,79,3.0,4.0,47,0.00,,,0.00,Wunderground v.1.15,2013-04-16 22:40:00,
2013-04-16 18:50:00,88.6,65.8,29.96,ENE,68,4.0,4.0,47,0.00,,,0.00,Wunderground v.1.15,2013-04-16 22:50:00,
2013-04-16 19:00:00,86.1,73.9,29.97,WNW,288,6.0,6.0,67,0.00,,,0.00,Wunderground v.1.15,2013-04-16 23:00:00,
2013-04-16 19:10:00,82.4,72.5,29.97,WNW,285,6.0,21.0,72,0.00,,,0.00,Wunderground v.1.15,2013-04-16 23:10:00,
2013-04-16 19:20:00,81.2,72.9,29.97,West,262,9.0,9.0,76,0.00,,,0.00,Wunderground v.1.15,2013-04-16 23:20:00,
2013-04-16 19:30:00,81.1,73.2,29.97,West,271,4.0,4.0,77,0.00,,,0.00,Wunderground v.1.15,2013-04-16 23:30:00,
2013-04-16 19:40:00,81.2,73.3,29.97,WNW,285,1.0,1.0,77,0.00,,,0.00,Wunderground v.1.15,2013-04-16 23:40:00,
2013-04-16 19:50:00,81.1,72.8,29.98,WNW,285,0.0,21.0,76,0.00,,,0.00,Wunderground v.1.15,2013-04-16 23:50:00,
2013-04-16 20:00:00,81.2,70.1,29.98,East,84,0.0,21.0,69,0.00,,,0.00,Wunderground v.1.15,2013-04-17 00:00:00,
2013-04-16 20:10:00,83.0,67.7,29.98,SE,128,3.0,3.0,60,0.00,,,0.00,Wunderground v.1.15,2013-04-17 00:10:00,
2013-04-16 20:15:00,83.4,67.1,29.99,ENE,73,3.0,21.0,58,0.00,,,0.00,Wunderground v.1.15,2013-04-17 00:15:00,
2013-04-16 20:25:00,83.6,66.8,29.99,East,79,6.0,21.0,57,0.00,,,0.00,Wunderground v.1.15,2013-04-17 00:25:00,
2013-04-16 20:35:00,83.4,66.6,29.99,ENE,65,4.0,21.0,57,0.00,,,0.00,Wunderground v.1.15,2013-04-17 00:35:00,
2013-04-16 20:45:00,83.2,66.4,30.00,ESE,120,6.0,21.0,57,0.00,,,0.00,Wunderground v.1.15,2013-04-17 00:45:00,
2013-04-16 20:55:00,82.8,66.5,30.00,East,86,8.0,21.0,58,0.00,,,0.00,Wunderground v.1.15,2013-04-17 00:55:00,
2013-04-16 21:05:00,82.2,70.6,30.01,SSE,147,6.0,21.0,68,0.00,,,0.00,Wunderground v.1.15,2013-04-17 01:05:00,
2013-04-16 21:15:00,81.2,70.1,30.02,East,99,1.0,6.0,69,0.00,,,0.00,Wunderground v.1.15,2013-04-17 01:15:00,
2013-04-16 21:25:00,81.1,68.7,30.02,East,96,8.0,16.0,66,0.00,,,0.00,Wunderground v.1.15,2013-04-17 01:25:00,
2013-04-16 21:35:00,81.1,66.4,30.02,ESE,110,10.0,13.0,61,0.00,,,0.00,Wunderground v.1.15,2013-04-17 01:35:00,
2013-04-16 21:45:00,80.7,66.5,30.03,East,98,13.0,13.0,62,0.00,,,0.00,Wunderground v.1.15,2013-04-17 01:45:00,
2013-04-16 21:55:00,80.3,66.6,30.03,East,86,7.0,18.0,63,0.00,,,0.00,Wunderground v.1.15,2013-04-17 01:55:00,
2013-04-16 22:05:00,79.6,66.8,30.03,East,101,10.0,10.0,65,0.00,,,0.00,Wunderground v.1.15,2013-04-17 02:05:00,
2013-04-16 22:15:00,78.8,66.5,30.03,NE,55,9.0,22.0,66,0.00,,,0.00,Wunderground v.1.15,2013-04-17 02:15:00,
2013-04-16 22:20:00,78.6,66.3,30.03,ENE,74,7.0,7.0,66,0.00,,,0.00,Wunderground v.1.15,2013-04-17 02:20:00,
2013-04-16 22:30:00,78.1,66.2,30.04,East,86,8.0,8.0,67,0.00,,,0.00,Wunderground v.1.15,2013-04-17 02:30:00,
2013-04-16 22:40:00,77.6,66.2,30.04,ESE,115,7.0,21.0,68,0.00,,,0.00,Wunderground v.1.15,2013-04-17 02:40:00,
2013-04-16 22:50:00,77.2,66.2,30.04,ENE,64,8.0,8.0,69,0.00,,,0.00,Wunderground v.1.15,2013-04-17 02:50:00,
2013-04-16 23:00:00,76.8,66.3,30.04,ESE,118,6.0,21.0,70,0.00,,,0.00,Wunderground v.1.15,2013-04-17 03:00:00,
2013-04-16 23:10:00,76.5,66.4,30.04,East,86,7.0,21.0,71,0.00,,,0.00,Wunderground v.1.15,2013-04-17 03:10:00,
2013-04-16 23:20:00,76.1,66.4,30.04,ENE,70,6.0,6.0,72,0.00,,,0.00,Wunderground v.1.15,2013-04-17 03:20:00,
2013-04-16 23:30:00,75.8,66.1,30.04,ENE,75,5.0,5.0,72,0.00,,,0.00,Wunderground v.1.15,2013-04-17 03:30:00,
2013-04-16 23:40:00,75.6,66.3,30.04,ENE,69,5.0,5.0,73,0.00,,,0.00,Wunderground v.1.15,2013-04-17 03:40:00,
2013-04-16 23:45:00,75.4,66.1,30.04,East,94,4.0,14.0,73,0.00,,,0.00,Wunderground v.1.15,2013-04-17 03:45:00,
2013-04-16 23:55:00,75.1,66.2,30.04,ESE,103,6.0,21.0,74,0.00,,,0.00,Wunderground v.1.15,2013-04-17 03:55:00,